createdAt,value
2023-02-11T00:01:16.712Z,75.75
2023-02-11T00:03:43.802Z,75.40
2023-02-11T00:06:11.980Z,75.46
2023-02-11T00:08:39.776Z,75.37
2023-02-11T00:11:07.248Z,75.49
2023-02-11T00:13:34.529Z,75.51
2023-02-11T00:16:07.378Z,75.97
2023-02-11T00:18:34.424Z,75.93
2023-02-11T00:21:10.212Z,75.72
2023-02-11T00:23:38.048Z,76.27
2023-02-11T00:26:12.255Z,75.94
2023-02-11T00:28:39.193Z,76.04
2023-02-11T00:31:06.322Z,75.87
2023-02-11T00:33:33.278Z,76.10
2023-02-11T00:36:08.681Z,76.21
2023-02-11T00:38:36.179Z,76.36
2023-02-11T00:41:03.026Z,76.52
2023-02-11T00:43:29.956Z,76.81
2023-02-11T00:45:57.260Z,76.55
2023-02-11T00:48:24.527Z,76.55
2023-02-11T00:50:51.645Z,76.38
2023-02-11T00:53:18.999Z,76.20
2023-02-11T00:55:46.013Z,76.04
2023-02-11T00:58:13.004Z,75.93
2023-02-11T01:00:40.502Z,75.92
2023-02-11T01:03:07.454Z,76.17
2023-02-11T01:05:35.847Z,76.35
2023-02-11T01:08:03.971Z,76.22
2023-02-11T01:10:31.407Z,76.39
2023-02-11T01:12:58.449Z,76.72
2023-02-11T01:15:25.891Z,76.37
2023-02-11T01:17:53.013Z,76.71
2023-02-11T01:20:24.252Z,76.82
2023-02-11T01:22:51.097Z,76.38
2023-02-11T01:25:18.050Z,76.75
2023-02-11T01:27:45.017Z,76.41
2023-02-11T01:30:14.381Z,76.34
2023-02-11T01:32:41.819Z,76.38
2023-02-11T01:35:09.255Z,76.37
2023-02-11T01:37:36.691Z,76.02
2023-02-11T01:40:07.491Z,75.92
2023-02-11T01:42:34.533Z,76.06
2023-02-11T01:45:22.239Z,76.14
2023-02-11T01:47:49.089Z,76.29
2023-02-11T01:50:16.608Z,76.33
2023-02-11T01:52:46.625Z,76.35
2023-02-11T01:55:33.410Z,76.53
2023-02-11T01:58:05.165Z,76.34
2023-02-11T02:00:39.537Z,76.48
2023-02-11T02:03:11.722Z,76.44
2023-02-11T02:05:58.431Z,76.47
2023-02-11T02:08:47.009Z,76.88
2023-02-11T02:11:14.099Z,76.67
2023-02-11T02:13:41.039Z,76.57
2023-02-11T02:16:18.139Z,76.84
2023-02-11T02:19:31.493Z,76.90
2023-02-11T02:22:07.965Z,76.98
2023-02-11T02:25:01.296Z,76.71
2023-02-11T02:27:48.531Z,76.28
2023-02-11T02:30:33.761Z,76.17
2023-02-11T02:33:34.326Z,76.24
2023-02-11T02:36:48.239Z,75.90
2023-02-11T02:39:21.804Z,75.75
2023-02-11T02:41:51.244Z,75.65
2023-02-11T02:44:20.070Z,75.26
2023-02-11T02:46:47.407Z,75.31
2023-02-11T02:49:16.686Z,75.13
2023-02-11T02:52:16.289Z,75.00
2023-02-11T02:55:12.819Z,75.37
2023-02-11T02:58:35.778Z,75.27
2023-02-11T03:01:14.661Z,75.17
2023-02-11T03:03:51.332Z,75.27
2023-02-11T03:06:47.013Z,75.18
2023-02-11T03:09:25.809Z,75.58
2023-02-11T03:11:53.086Z,75.59
2023-02-11T03:14:22.606Z,75.56
2023-02-11T03:16:51.250Z,75.50
2023-02-11T03:19:23.173Z,75.60
2023-02-11T03:21:52.693Z,75.59
2023-02-11T03:24:41.325Z,75.43
2023-02-11T03:27:44.609Z,75.23
2023-02-11T03:30:26.962Z,75.11
2023-02-11T03:32:59.571Z,74.92
2023-02-11T03:35:36.935Z,74.88
2023-02-11T03:38:18.047Z,74.83
2023-02-11T03:40:46.064Z,74.60
2023-02-11T03:43:26.369Z,74.77
2023-02-11T03:45:55.619Z,74.54
2023-02-11T03:48:33.890Z,74.95
2023-02-11T03:51:05.418Z,74.75
2023-02-11T03:53:32.536Z,74.77
2023-02-11T03:56:05.740Z,74.85
2023-02-11T03:58:32.688Z,74.80
2023-02-11T04:00:59.918Z,74.92
2023-02-11T04:03:26.821Z,74.82
2023-02-11T04:05:54.527Z,74.81
2023-02-11T04:08:21.807Z,74.89
2023-02-11T04:10:48.901Z,74.75
2023-02-11T04:13:15.902Z,74.89
2023-02-11T04:15:42.928Z,74.48
2023-02-11T04:18:10.213Z,74.84
2023-02-11T04:20:37.086Z,74.55
2023-02-11T04:23:04.292Z,74.73
2023-02-11T04:25:31.406Z,74.74
2023-02-11T04:27:58.705Z,74.72
2023-02-11T04:30:25.664Z,74.85
2023-02-11T04:32:54.551Z,74.86
2023-02-11T04:35:22.052Z,75.03
2023-02-11T04:37:48.851Z,75.07
2023-02-11T04:40:15.981Z,75.06
2023-02-11T04:42:42.939Z,75.10
2023-02-11T04:45:10.500Z,74.89
2023-02-11T04:47:38.288Z,74.89
2023-02-11T04:50:06.031Z,74.95
2023-02-11T04:52:33.329Z,74.94
2023-02-11T04:55:00.371Z,74.94
2023-02-11T04:57:27.493Z,74.87
2023-02-11T04:59:54.309Z,75.15
2023-02-11T05:02:21.728Z,75.26
2023-02-11T05:04:48.768Z,75.21
2023-02-11T05:07:15.895Z,75.27
2023-02-11T05:09:43.171Z,75.27
2023-02-11T05:12:10.212Z,75.20
2023-02-11T05:14:37.259Z,75.37
2023-02-11T05:17:04.611Z,75.11
2023-02-11T05:19:32.306Z,75.26
2023-02-11T05:22:03.059Z,75.31
2023-02-11T05:24:32.780Z,75.09
2023-02-11T05:27:00.402Z,74.92
2023-02-11T05:29:27.892Z,74.94
2023-02-11T05:31:55.181Z,74.79
2023-02-11T05:34:22.158Z,74.79
2023-02-11T05:36:49.251Z,74.79
2023-02-11T05:39:16.246Z,74.93
2023-02-11T05:41:43.248Z,74.81
2023-02-11T05:44:10.687Z,74.62
2023-02-11T05:46:37.720Z,74.65
2023-02-11T05:49:05.142Z,74.78
2023-02-11T05:51:32.448Z,75.02
2023-02-11T05:53:59.489Z,75.07
2023-02-11T05:56:26.481Z,74.93
2023-02-11T05:58:53.569Z,75.08
2023-02-11T06:01:20.787Z,74.93
2023-02-11T06:03:50.496Z,74.90
2023-02-11T06:06:18.049Z,74.97
2023-02-11T06:08:44.982Z,74.85
2023-02-11T06:11:11.724Z,74.84
2023-02-11T06:13:38.941Z,74.55
2023-02-11T06:16:06.419Z,74.55
2023-02-11T06:18:34.128Z,74.50
2023-02-11T06:21:01.035Z,74.39
2023-02-11T06:23:30.229Z,74.70
2023-02-11T06:26:02.705Z,74.54
2023-02-11T06:28:31.872Z,74.77
2023-02-11T06:31:00.280Z,74.81
2023-02-11T06:33:27.113Z,74.66
2023-02-11T06:35:53.848Z,74.60
2023-02-11T06:38:23.779Z,74.74
2023-02-11T06:40:51.118Z,74.69
2023-02-11T06:43:18.157Z,74.79
2023-02-11T06:45:45.249Z,74.81
2023-02-11T06:48:12.375Z,74.89
2023-02-11T06:50:39.572Z,74.98
2023-02-11T06:53:06.549Z,75.12
2023-02-11T06:55:35.450Z,75.18
2023-02-11T06:58:02.533Z,75.15
2023-02-11T07:00:29.978Z,75.01
2023-02-11T07:02:57.439Z,74.99
2023-02-11T07:05:24.644Z,74.86
2023-02-11T07:07:51.653Z,74.83
2023-02-11T07:10:18.732Z,74.84
2023-02-11T07:12:45.730Z,74.85
2023-02-11T07:15:12.930Z,74.68
2023-02-11T07:17:39.868Z,74.69
2023-02-11T07:20:07.492Z,74.75
2023-02-11T07:22:35.290Z,74.63
2023-02-11T07:25:02.337Z,74.44
2023-02-11T07:27:29.393Z,74.60
2023-02-11T07:29:56.369Z,74.59
2023-02-11T07:32:23.334Z,74.45
2023-02-11T07:34:50.476Z,74.47
2023-02-11T07:37:17.586Z,74.34
2023-02-11T07:39:44.501Z,74.12
2023-02-11T07:42:11.866Z,74.15
2023-02-11T07:44:39.171Z,74.06
2023-02-11T07:47:06.082Z,74.06
2023-02-11T07:49:33.093Z,73.89
2023-02-11T07:52:00.299Z,74.27
2023-02-11T07:54:27.745Z,73.99
2023-02-11T07:56:54.649Z,74.22
2023-02-11T07:59:21.784Z,73.89
2023-02-11T08:01:49.115Z,73.11
2023-02-11T08:04:16.183Z,72.61
2023-02-11T08:06:44.380Z,72.30
2023-02-11T08:09:19.249Z,71.72
2023-02-11T08:11:46.331Z,71.54
2023-02-11T08:14:13.385Z,70.96
2023-02-11T08:16:40.999Z,71.35
2023-02-11T08:19:13.027Z,71.23
2023-02-11T08:21:40.854Z,71.41
2023-02-11T08:24:08.410Z,70.99
2023-02-11T08:26:36.582Z,71.00
2023-02-11T08:29:14.703Z,70.52
2023-02-11T08:31:45.072Z,70.51
2023-02-11T08:34:14.949Z,70.58
2023-02-11T08:36:43.305Z,70.46
2023-02-11T08:39:20.029Z,70.04
2023-02-11T08:41:50.626Z,70.05
2023-02-11T08:44:19.175Z,69.79
2023-02-11T08:46:47.503Z,69.49
2023-02-11T08:49:15.268Z,69.31
2023-02-11T08:51:43.077Z,69.61
2023-02-11T08:54:10.699Z,69.38
2023-02-11T08:56:39.596Z,69.66
2023-02-11T08:59:07.587Z,69.87
2023-02-11T09:01:34.725Z,70.01
2023-02-11T09:04:02.133Z,69.87
2023-02-11T09:06:29.752Z,69.57
2023-02-11T09:08:58.338Z,69.77
2023-02-11T09:11:29.621Z,69.17
2023-02-11T09:13:57.486Z,68.81
2023-02-11T09:16:27.922Z,68.68
2023-02-11T09:18:57.886Z,68.98
2023-02-11T09:21:25.589Z,67.88
2023-02-11T09:23:53.170Z,67.42
2023-02-11T09:26:25.904Z,67.09
2023-02-11T09:28:53.340Z,67.01
2023-02-11T09:31:23.249Z,66.73
2023-02-11T09:33:52.703Z,66.58
2023-02-11T09:36:23.656Z,66.49
2023-02-11T09:38:51.598Z,66.64
2023-02-11T09:41:24.607Z,66.03
2023-02-11T09:43:55.327Z,66.08
2023-02-11T09:46:24.971Z,66.08
2023-02-11T09:48:56.136Z,66.60
2023-02-11T09:51:45.090Z,66.83
2023-02-11T09:54:20.277Z,66.10
2023-02-11T09:56:47.409Z,66.51
2023-02-11T09:59:16.248Z,66.11
2023-02-11T10:01:55.372Z,66.20
2023-02-11T10:04:45.030Z,66.62
2023-02-11T10:07:17.889Z,66.04
2023-02-11T10:10:03.097Z,66.40
2023-02-11T10:12:38.747Z,66.31
2023-02-11T10:15:18.281Z,65.44
2023-02-11T10:17:57.021Z,66.01
2023-02-11T10:21:12.183Z,65.60
2023-02-11T10:23:43.170Z,65.38
2023-02-11T10:26:19.045Z,64.66
2023-02-11T10:28:53.503Z,64.54
2023-02-11T10:31:27.316Z,63.68
2023-02-11T10:34:07.291Z,63.60
2023-02-11T10:36:37.170Z,63.40
2023-02-11T10:39:19.425Z,63.49
2023-02-11T10:41:47.669Z,63.73
2023-02-11T10:44:42.828Z,63.15
2023-02-11T10:47:17.553Z,63.30
2023-02-11T10:49:46.316Z,63.19
2023-02-11T10:52:18.134Z,63.46
2023-02-11T10:54:58.371Z,63.29
2023-02-11T10:57:31.695Z,62.44
2023-02-11T11:00:02.699Z,62.26
2023-02-11T11:02:34.888Z,61.46
2023-02-11T11:05:20.290Z,60.57
2023-02-11T11:08:00.110Z,60.28
2023-02-11T11:10:46.220Z,60.42
2023-02-11T11:13:29.273Z,60.55
2023-02-11T11:16:12.786Z,60.00
2023-02-11T11:18:41.423Z,59.84
2023-02-11T11:21:16.536Z,60.47
2023-02-11T11:23:51.982Z,60.32
2023-02-11T11:26:19.892Z,59.59
2023-02-11T11:28:49.851Z,60.38
2023-02-11T11:31:23.080Z,60.31
2023-02-11T11:33:53.894Z,60.80
2023-02-11T11:36:24.452Z,60.94
2023-02-11T11:38:57.011Z,61.46
2023-02-11T11:41:28.445Z,61.86
2023-02-11T11:44:00.305Z,62.18
2023-02-11T11:46:37.048Z,62.54
2023-02-11T11:49:23.540Z,63.19
2023-02-11T11:52:14.367Z,63.43
2023-02-11T11:54:46.612Z,63.39
2023-02-11T11:57:20.533Z,63.81
2023-02-11T11:59:48.277Z,63.80
2023-02-11T12:02:43.568Z,63.91
2023-02-11T12:05:48.603Z,63.95
2023-02-11T12:08:44.054Z,64.48
2023-02-11T12:11:39.029Z,64.78
2023-02-11T12:14:35.497Z,64.81
2023-02-11T12:17:31.580Z,65.17
2023-02-11T12:20:08.523Z,64.83
2023-02-11T12:22:54.253Z,65.38
2023-02-11T12:25:44.747Z,65.90
2023-02-11T12:28:30.261Z,66.02
2023-02-11T12:31:11.344Z,66.15
2023-02-11T12:33:39.769Z,66.58
2023-02-11T12:36:22.216Z,66.24
2023-02-11T12:39:04.867Z,67.27
2023-02-11T12:42:25.589Z,66.65
2023-02-11T12:45:11.724Z,66.84
2023-02-11T12:48:13.404Z,67.29
2023-02-11T12:51:00.604Z,67.06
2023-02-11T12:53:43.645Z,67.70
2023-02-11T12:56:22.093Z,67.27
2023-02-11T12:58:55.170Z,67.38
2023-02-11T13:01:44.659Z,67.74
2023-02-11T13:04:29.208Z,68.32
2023-02-11T13:07:02.606Z,67.91
2023-02-11T13:09:39.374Z,68.22
2023-02-11T13:12:27.250Z,68.52
2023-02-11T13:14:59.760Z,68.47
2023-02-11T13:17:34.300Z,68.74
2023-02-11T13:20:45.809Z,69.16
2023-02-11T13:23:15.698Z,69.63
2023-02-11T13:25:55.178Z,69.75
2023-02-11T13:29:04.292Z,69.95
2023-02-11T13:31:32.249Z,70.64
2023-02-11T13:33:59.283Z,70.70
2023-02-11T13:36:28.956Z,71.49
2023-02-11T13:39:21.418Z,70.97
2023-02-11T13:41:52.629Z,71.08
2023-02-11T13:44:25.360Z,71.51
2023-02-11T13:47:02.270Z,71.48
2023-02-11T13:49:35.808Z,71.60
2023-02-11T13:52:06.855Z,71.75
2023-02-11T13:54:38.820Z,71.88
2023-02-11T13:57:20.849Z,72.43
2023-02-11T13:59:52.354Z,73.04
2023-02-11T14:02:47.881Z,73.62
2023-02-11T14:05:42.284Z,73.67
2023-02-11T14:08:30.747Z,73.83
2023-02-11T14:11:12.926Z,73.97
2023-02-11T14:13:49.177Z,73.90
2023-02-11T14:16:35.242Z,73.84
2023-02-11T14:19:04.505Z,73.97
2023-02-11T14:21:43.421Z,73.93
2023-02-11T14:24:11.408Z,73.59
2023-02-11T14:26:59.606Z,73.77
2023-02-11T14:29:26.644Z,73.93
2023-02-11T14:31:56.853Z,73.74
2023-02-11T14:34:47.174Z,73.58
2023-02-11T14:37:36.413Z,73.81
2023-02-11T14:40:05.606Z,73.85
2023-02-11T14:42:32.791Z,73.81
2023-02-11T14:45:07.013Z,73.92
2023-02-11T14:48:09.182Z,74.04
2023-02-11T14:50:58.530Z,74.35
2023-02-11T14:53:28.771Z,74.58
2023-02-11T14:55:56.178Z,74.44
2023-02-11T14:58:23.122Z,74.32
2023-02-11T15:01:01.976Z,74.10
2023-02-11T15:03:29.251Z,73.87
2023-02-11T15:06:00.608Z,74.03
2023-02-11T15:08:29.025Z,74.22
2023-02-11T15:10:57.106Z,74.11
2023-02-11T15:13:27.326Z,74.28
2023-02-11T15:16:19.888Z,74.40
2023-02-11T15:18:59.009Z,74.48
2023-02-11T15:21:31.625Z,74.79
2023-02-11T15:24:21.093Z,74.35
2023-02-11T15:26:58.529Z,74.40
2023-02-11T15:29:27.375Z,74.51
2023-02-11T15:32:16.036Z,75.25
2023-02-11T15:34:44.633Z,76.88
2023-02-11T15:37:25.340Z,77.14
2023-02-11T15:39:54.378Z,77.27
2023-02-11T15:42:31.433Z,77.81
2023-02-11T15:45:29.448Z,78.54
2023-02-11T15:48:00.177Z,79.61
2023-02-11T15:50:31.312Z,80.81
2023-02-11T15:53:02.622Z,81.25
2023-02-11T15:55:30.779Z,81.56
2023-02-11T15:58:00.938Z,82.31
2023-02-11T16:00:50.622Z,83.01
2023-02-11T16:03:24.619Z,83.36
2023-02-11T16:05:52.137Z,83.57
2023-02-11T16:08:29.584Z,83.98
2023-02-11T16:11:00.140Z,84.68
2023-02-11T16:13:29.906Z,85.07
2023-02-11T16:16:02.747Z,85.66
2023-02-11T16:18:39.080Z,85.72
2023-02-11T16:21:14.865Z,86.26
2023-02-11T16:23:42.871Z,86.44
2023-02-11T16:26:26.147Z,86.82
2023-02-11T16:28:54.288Z,87.48
2023-02-11T16:31:21.612Z,87.76
2023-02-11T16:33:48.570Z,88.27
2023-02-11T16:36:19.544Z,88.32
2023-02-11T16:38:46.549Z,88.46
2023-02-11T16:41:13.729Z,88.12
2023-02-11T16:43:40.948Z,88.54
2023-02-11T16:46:09.969Z,89.03
2023-02-11T16:48:38.308Z,89.15
2023-02-11T16:51:05.562Z,89.69
2023-02-11T16:53:32.773Z,89.64
2023-02-11T16:55:59.891Z,89.33
2023-02-11T16:58:27.105Z,89.56
2023-02-11T17:00:54.503Z,89.48
2023-02-11T17:03:27.478Z,89.56
2023-02-11T17:05:56.526Z,89.76
2023-02-11T17:08:23.822Z,90.11
2023-02-11T17:10:51.016Z,90.09
2023-02-11T17:13:18.392Z,90.22
2023-02-11T17:15:45.533Z,90.43
2023-02-11T17:18:14.722Z,91.43
2023-02-11T17:20:41.747Z,91.52
2023-02-11T17:23:09.504Z,91.83
2023-02-11T17:25:40.977Z,91.74
2023-02-11T17:28:09.547Z,91.82
2023-02-11T17:30:36.923Z,91.76
2023-02-11T17:33:04.053Z,91.46
2023-02-11T17:35:31.483Z,91.36
2023-02-11T17:37:59.480Z,91.05
2023-02-11T17:40:27.293Z,91.24
2023-02-11T17:42:54.445Z,91.18
2023-02-11T17:45:22.475Z,91.20
2023-02-11T17:47:49.885Z,91.08
2023-02-11T17:50:17.089Z,91.76
2023-02-11T17:52:44.414Z,91.87
2023-02-11T17:55:11.866Z,91.95
2023-02-11T17:57:39.125Z,92.12
2023-02-11T18:00:08.862Z,92.04
2023-02-11T18:02:35.996Z,92.08
2023-02-11T18:05:03.951Z,92.04
2023-02-11T18:07:30.886Z,92.20
2023-02-11T18:09:57.855Z,92.31
2023-02-11T18:12:27.667Z,92.36
2023-02-11T18:14:57.892Z,92.23
2023-02-11T18:17:25.627Z,92.31
2023-02-11T18:19:57.187Z,92.54
2023-02-11T18:22:24.828Z,92.56
2023-02-11T18:24:53.817Z,92.26
2023-02-11T18:27:22.161Z,92.21
2023-02-11T18:29:49.041Z,92.69
2023-02-11T18:32:16.448Z,92.67
2023-02-11T18:34:43.504Z,92.43
2023-02-11T18:37:11.734Z,92.53
2023-02-11T18:39:39.091Z,92.58
2023-02-11T18:42:06.417Z,92.87
2023-02-11T18:44:33.730Z,92.80
2023-02-11T18:47:01.424Z,92.71
2023-02-11T18:49:28.879Z,92.77
2023-02-11T18:51:55.970Z,92.42
2023-02-11T18:54:23.076Z,92.38
2023-02-11T18:56:50.371Z,92.28
2023-02-11T18:59:17.483Z,92.43
2023-02-11T19:01:47.305Z,92.31
2023-02-11T19:04:19.292Z,92.60
2023-02-11T19:06:49.776Z,92.36
2023-02-11T19:09:19.756Z,92.07
2023-02-11T19:11:47.609Z,92.32
2023-02-11T19:14:34.560Z,92.15
2023-02-11T19:17:05.312Z,92.13
2023-02-11T19:19:34.794Z,92.11
2023-02-11T19:22:03.748Z,92.16
2023-02-11T19:24:31.141Z,92.05
2023-02-11T19:27:00.456Z,91.94
2023-02-11T19:29:28.551Z,92.01
2023-02-11T19:31:56.312Z,91.75
2023-02-11T19:34:24.403Z,91.86
2023-02-11T19:36:51.818Z,92.24
2023-02-11T19:39:19.169Z,92.26
2023-02-11T19:41:47.752Z,92.14
2023-02-11T19:44:17.969Z,92.27
2023-02-11T19:46:46.326Z,92.28
2023-02-11T19:49:16.927Z,92.51
2023-02-11T19:51:44.553Z,92.15
2023-02-11T19:54:11.888Z,92.38
2023-02-11T19:56:39.254Z,92.31
2023-02-11T19:59:09.170Z,92.27
2023-02-11T20:01:37.159Z,93.15
2023-02-11T20:04:04.052Z,92.72
2023-02-11T20:06:32.875Z,92.82
2023-02-11T20:09:03.109Z,92.62
2023-02-11T20:11:31.981Z,92.82
2023-02-11T20:13:59.824Z,92.59
2023-02-11T20:16:41.008Z,92.64
2023-02-11T20:19:18.349Z,92.71
2023-02-11T20:21:48.547Z,92.92
2023-02-11T20:24:17.571Z,92.88
2023-02-11T20:26:46.700Z,93.26
2023-02-11T20:29:13.673Z,93.52
2023-02-11T20:31:40.650Z,93.20
2023-02-11T20:34:07.740Z,93.25
2023-02-11T20:36:37.748Z,93.50
2023-02-11T20:39:06.488Z,93.69
2023-02-11T20:41:35.806Z,94.01
2023-02-11T20:44:05.901Z,94.36
2023-02-11T20:46:35.053Z,94.62
2023-02-11T20:49:02.547Z,94.72
2023-02-11T20:51:32.847Z,94.61
2023-02-11T20:54:00.786Z,94.70
2023-02-11T20:56:31.661Z,94.36
2023-02-11T20:59:00.165Z,94.56
2023-02-11T21:01:31.063Z,94.35
2023-02-11T21:03:57.978Z,94.62
2023-02-11T21:06:27.897Z,94.98
2023-02-11T21:08:54.781Z,94.61
2023-02-11T21:11:21.658Z,94.96
2023-02-11T21:13:49.087Z,94.94
2023-02-11T21:16:20.706Z,94.93
2023-02-11T21:18:49.004Z,95.07
2023-02-11T21:21:17.600Z,94.81
2023-02-11T21:23:45.019Z,94.91
2023-02-11T21:26:12.138Z,94.99
2023-02-11T21:28:41.044Z,94.96
2023-02-11T21:31:09.932Z,96.05
2023-02-11T21:33:37.137Z,96.19
2023-02-11T21:36:08.041Z,96.53
2023-02-11T21:38:35.428Z,96.25
2023-02-11T21:41:06.623Z,96.41
2023-02-11T21:43:34.059Z,96.55
2023-02-11T21:46:01.415Z,96.81
2023-02-11T21:48:28.709Z,97.10
2023-02-11T21:50:55.575Z,97.37
2023-02-11T21:53:22.494Z,96.95
2023-02-11T21:55:54.854Z,96.94
2023-02-11T21:58:22.011Z,96.94
2023-02-11T22:00:48.898Z,97.00
2023-02-11T22:03:15.981Z,97.16
2023-02-11T22:05:43.043Z,96.81
2023-02-11T22:08:10.053Z,96.93
2023-02-11T22:10:37.093Z,96.95
2023-02-11T22:13:03.982Z,96.88
2023-02-11T22:15:31.186Z,96.47
2023-02-11T22:17:58.214Z,96.52
2023-02-11T22:20:25.574Z,97.11
2023-02-11T22:22:52.563Z,96.99
2023-02-11T22:25:19.607Z,96.77
2023-02-11T22:27:46.613Z,96.64
2023-02-11T22:30:14.465Z,96.36
2023-02-11T22:32:42.765Z,96.85
2023-02-11T22:35:09.890Z,96.49
2023-02-11T22:37:36.942Z,96.26
2023-02-11T22:40:04.325Z,96.38
2023-02-11T22:42:31.168Z,96.35
2023-02-11T22:44:58.389Z,96.43
2023-02-11T22:47:25.459Z,96.02
2023-02-11T22:49:52.405Z,96.08
2023-02-11T22:52:19.324Z,96.23
2023-02-11T22:54:47.614Z,96.06
2023-02-11T22:57:14.705Z,96.18
2023-02-11T22:59:42.020Z,96.07
2023-02-11T23:02:09.072Z,95.85
2023-02-11T23:04:36.114Z,95.65
2023-02-11T23:07:03.164Z,95.56
2023-02-11T23:09:30.108Z,95.45
2023-02-11T23:11:58.178Z,95.69
2023-02-11T23:14:25.912Z,95.52
2023-02-11T23:16:53.073Z,95.32
2023-02-11T23:19:20.323Z,95.53
2023-02-11T23:21:51.747Z,95.74
2023-02-11T23:24:18.716Z,95.50
2023-02-11T23:26:46.184Z,95.47
2023-02-11T23:29:13.665Z,95.52
2023-02-11T23:31:44.170Z,95.24
2023-02-11T23:34:12.470Z,95.56
2023-02-11T23:36:39.373Z,95.48
2023-02-11T23:39:06.626Z,95.35
2023-02-11T23:41:33.834Z,95.37
2023-02-11T23:44:01.331Z,95.23
2023-02-11T23:46:28.766Z,95.28
2023-02-11T23:48:56.243Z,95.33
2023-02-11T23:51:24.154Z,95.45
2023-02-11T23:53:52.910Z,95.38
2023-02-11T23:56:26.281Z,95.27
2023-02-11T23:58:56.349Z,95.24
